sensor_id;sensor_type;location;lat;lon;timestamp;pressure;altitude;pressure_sealevel;temperature;humidity
7940;BME280;4015;48.888;9.226;2022-12-05T00:01:42;156362.31;;;4.43;91.03
7940;BME280;4015;48.888;9.226;2022-12-05T00:04:10;156363.59;;;4.43;91.92
7940;BME280;4015;48.888;9.226;2022-12-05T00:06:37;156359.78;;;4.42;90.46
7940;BME280;4015;48.888;9.226;2022-12-05T00:09:04;156317.78;;;4.25;90.49
7940;BME280;4015;48.888;9.226;2022-12-05T00:11:32;156282.19;;;4.11;92.09
7940;BME280;4015;48.888;9.226;2022-12-05T00:14:00;156254.19;;;3.99;92.11
7940;BME280;4015;48.888;9.226;2022-12-05T00:16:27;156266.94;;;4.04;91.22
7940;BME280;4015;48.888;9.226;2022-12-05T00:18:53;156231.31;;;3.90;91.89
7940;BME280;4015;48.888;9.226;2022-12-05T00:21:24;156246.59;;;3.96;91.32
7940;BME280;4015;48.888;9.226;2022-12-05T00:23:51;156289.78;;;4.14;91.86
7940;BME280;4015;48.888;9.226;2022-12-05T00:26:17;156313.97;;;4.23;91.37
7940;BME280;4015;48.888;9.226;2022-12-05T00:28:43;156286.00;;;4.12;90.56
7940;BME280;4015;48.888;9.226;2022-12-05T00:31:14;156238.94;;;3.93;91.23
7940;BME280;4015;48.888;9.226;2022-12-05T00:33:44;156227.47;;;3.89;91.13
7940;BME280;4015;48.888;9.226;2022-12-05T00:36:12;156233.88;;;3.91;91.47
7940;BME280;4015;48.888;9.226;2022-12-05T00:38:39;156260.53;;;4.02;90.27
7940;BME280;4015;48.888;9.226;2022-12-05T00:41:13;156261.84;;;4.02;90.20
7940;BME280;4015;48.888;9.226;2022-12-05T00:43:39;156297.44;;;4.17;89.33
7940;BME280;4015;48.888;9.226;2022-12-05T00:46:07;156307.59;;;4.21;89.48
7940;BME280;4015;48.888;9.226;2022-12-05T00:48:33;156293.66;;;4.15;89.95
7940;BME280;4015;48.888;9.226;2022-12-05T00:51:03;156335.59;;;4.32;90.10
7940;BME280;4015;48.888;9.226;2022-12-05T00:53:30;156340.72;;;4.34;90.00
7940;BME280;4015;48.888;9.226;2022-12-05T00:55:55;156348.31;;;4.37;89.26
7940;BME280;4015;48.888;9.226;2022-12-05T00:58:21;156282.19;;;4.11;88.90
7940;BME280;4015;48.888;9.226;2022-12-05T01:00:46;156237.66;;;3.93;90.01
7940;BME280;4015;48.888;9.226;2022-12-05T01:03:11;156265.66;;;4.04;90.17
7940;BME280;4015;48.888;9.226;2022-12-05T01:05:36;156294.91;;;4.16;90.53
7940;BME280;4015;48.888;9.226;2022-12-05T01:08:02;156251.66;;;3.98;90.21
7940;BME280;4015;48.888;9.226;2022-12-05T01:10:27;156202.06;;;3.78;89.92
7940;BME280;4015;48.888;9.226;2022-12-05T01:12:53;156236.41;;;3.92;90.46
7940;BME280;4015;48.888;9.226;2022-12-05T01:15:18;156194.44;;;3.75;90.98
7940;BME280;4015;48.888;9.226;2022-12-05T01:17:43;156204.63;;;3.79;90.87
7940;BME280;4015;48.888;9.226;2022-12-05T01:20:09;156216.06;;;3.84;90.54
7940;BME280;4015;48.888;9.226;2022-12-05T01:22:34;156287.25;;;4.13;90.08
7940;BME280;4015;48.888;9.226;2022-12-05T01:25:00;156261.84;;;4.02;90.04
7940;BME280;4015;48.888;9.226;2022-12-05T01:27:25;156270.72;;;4.06;89.68
7940;BME280;4015;48.888;9.226;2022-12-05T01:29:51;156308.91;;;4.21;89.21
7940;BME280;4015;48.888;9.226;2022-12-05T01:32:16;156341.97;;;4.35;87.96
7940;BME280;4015;48.888;9.226;2022-12-05T01:34:41;156296.19;;;4.16;88.44
7940;BME280;4015;48.888;9.226;2022-12-05T01:37:07;156289.78;;;4.14;89.22
7940;BME280;4015;48.888;9.226;2022-12-05T01:39:32;156299.97;;;4.18;88.84
7940;BME280;4015;48.888;9.226;2022-12-05T01:41:57;156312.72;;;4.23;89.24
7940;BME280;4015;48.888;9.226;2022-12-05T01:46:50;156308.91;;;4.21;88.93
7940;BME280;4015;48.888;9.226;2022-12-05T01:49:22;156313.97;;;4.23;89.13
7940;BME280;4015;48.888;9.226;2022-12-05T01:51:52;156320.31;;;4.26;89.48
7940;BME280;4015;48.888;9.226;2022-12-05T01:54:19;156278.38;;;4.09;89.13
7940;BME280;4015;48.888;9.226;2022-12-05T01:56:50;156316.53;;;4.24;89.40
7940;BME280;4015;48.888;9.226;2022-12-05T01:59:17;156334.31;;;4.31;89.03
7940;BME280;4015;48.888;9.226;2022-12-05T02:01:45;156292.31;;;4.15;89.40
7940;BME280;4015;48.888;9.226;2022-12-05T02:04:10;156291.06;;;4.14;89.57
7940;BME280;4015;48.888;9.226;2022-12-05T02:06:36;156258.00;;;4.01;89.67
7940;BME280;4015;48.888;9.226;2022-12-05T02:09:02;156240.19;;;3.94;89.79
7940;BME280;4015;48.888;9.226;2022-12-05T02:11:28;156231.31;;;3.90;90.45
7940;BME280;4015;48.888;9.226;2022-12-05T02:19:54;156235.13;;;3.92;90.97
7940;BME280;4015;48.888;9.226;2022-12-05T02:23:24;156235.13;;;3.92;90.63
7940;BME280;4015;48.888;9.226;2022-12-05T02:31:50;156228.75;;;3.89;90.92
7940;BME280;4015;48.888;9.226;2022-12-05T02:34:25;156203.34;;;3.79;91.40
7940;BME280;4015;48.888;9.226;2022-12-05T02:37:01;156251.66;;;3.98;90.79
7940;BME280;4015;48.888;9.226;2022-12-05T02:45:06;156156.31;;;3.60;92.49
7940;BME280;4015;48.888;9.226;2022-12-05T02:47:37;156153.78;;;3.59;92.80
7940;BME280;4015;48.888;9.226;2022-12-05T02:50:05;156180.44;;;3.70;92.07
7940;BME280;4015;48.888;9.226;2022-12-05T02:52:32;156179.16;;;3.69;91.77
7940;BME280;4015;48.888;9.226;2022-12-05T02:54:58;156184.28;;;3.71;91.39
7940;BME280;4015;48.888;9.226;2022-12-05T02:57:24;156193.16;;;3.75;92.16
7940;BME280;4015;48.888;9.226;2022-12-05T02:59:50;156167.75;;;3.65;91.87
7940;BME280;4015;48.888;9.226;2022-12-05T03:02:32;156202.06;;;3.78;91.04
7940;BME280;4015;48.888;9.226;2022-12-05T03:07:45;156185.56;;;3.72;91.72
7940;BME280;4015;48.888;9.226;2022-12-05T03:10:11;156180.44;;;3.70;91.90
7940;BME280;4015;48.888;9.226;2022-12-05T03:12:43;156180.44;;;3.70;91.36
7940;BME280;4015;48.888;9.226;2022-12-05T03:15:18;156181.69;;;3.70;91.63
7940;BME280;4015;48.888;9.226;2022-12-05T03:17:52;156244.00;;;3.95;90.88
7940;BME280;4015;48.888;9.226;2022-12-05T03:20:32;156264.38;;;4.03;91.01
7940;BME280;4015;48.888;9.226;2022-12-05T03:23:03;156274.53;;;4.07;90.01
7940;BME280;4015;48.888;9.226;2022-12-05T03:25:37;156294.91;;;4.16;89.86
7940;BME280;4015;48.888;9.226;2022-12-05T03:28:24;156301.25;;;4.18;89.62
7940;BME280;4015;48.888;9.226;2022-12-05T03:30:52;156283.47;;;4.11;89.43
7940;BME280;4015;48.888;9.226;2022-12-05T03:33:32;156299.97;;;4.18;90.18
7940;BME280;4015;48.888;9.226;2022-12-05T03:38:51;156343.25;;;4.35;89.96
7940;BME280;4015;48.888;9.226;2022-12-05T03:41:21;156353.38;;;4.39;90.38
7940;BME280;4015;48.888;9.226;2022-12-05T03:46:37;156324.19;;;4.27;89.60
7940;BME280;4015;48.888;9.226;2022-12-05T03:49:24;156336.84;;;4.32;90.51
7940;BME280;4015;48.888;9.226;2022-12-05T03:52:00;156306.31;;;4.20;90.85
7940;BME280;4015;48.888;9.226;2022-12-05T03:54:54;156349.59;;;4.38;91.15
7940;BME280;4015;48.888;9.226;2022-12-05T03:57:28;156344.50;;;4.36;90.65
7940;BME280;4015;48.888;9.226;2022-12-05T04:00:07;156366.13;;;4.44;90.41
7940;BME280;4015;48.888;9.226;2022-12-05T04:02:53;156372.50;;;4.47;90.27
7940;BME280;4015;48.888;9.226;2022-12-05T04:05:26;156372.50;;;4.47;89.68
7940;BME280;4015;48.888;9.226;2022-12-05T04:08:18;156386.47;;;4.52;89.57
7940;BME280;4015;48.888;9.226;2022-12-05T04:10:47;156425.91;;;4.68;89.36
7940;BME280;4015;48.888;9.226;2022-12-05T04:13:30;156414.47;;;4.64;89.99
7940;BME280;4015;48.888;9.226;2022-12-05T04:16:09;156422.13;;;4.67;90.32
7940;BME280;4015;48.888;9.226;2022-12-05T04:19:22;156408.13;;;4.61;89.83
7940;BME280;4015;48.888;9.226;2022-12-05T04:21:53;156450.13;;;4.78;89.90
7940;BME280;4015;48.888;9.226;2022-12-05T04:24:22;156437.38;;;4.73;89.27
7940;BME280;4015;48.888;9.226;2022-12-05T04:27:36;156441.19;;;4.74;89.21
7940;BME280;4015;48.888;9.226;2022-12-05T04:30:06;156464.06;;;4.83;88.94
7940;BME280;4015;48.888;9.226;2022-12-05T04:35:23;156498.47;;;4.97;88.88
7940;BME280;4015;48.888;9.226;2022-12-05T04:37:52;156504.81;;;5.00;88.76
7940;BME280;4015;48.888;9.226;2022-12-05T04:40:28;156517.56;;;5.05;88.54
7940;BME280;4015;48.888;9.226;2022-12-05T04:42:56;156502.28;;;4.99;89.29
7940;BME280;4015;48.888;9.226;2022-12-05T04:45:24;156438.66;;;4.73;89.69
7940;BME280;4015;48.888;9.226;2022-12-05T04:47:56;156469.19;;;4.85;89.54
7940;BME280;4015;48.888;9.226;2022-12-05T04:50:23;156439.94;;;4.74;89.71
7940;BME280;4015;48.888;9.226;2022-12-05T04:52:53;156462.81;;;4.83;89.67
7940;BME280;4015;48.888;9.226;2022-12-05T04:55:23;156465.38;;;4.84;89.53
7940;BME280;4015;48.888;9.226;2022-12-05T04:58:07;156461.53;;;4.82;89.69
7940;BME280;4015;48.888;9.226;2022-12-05T05:00:49;156452.66;;;4.79;89.63
7940;BME280;4015;48.888;9.226;2022-12-05T05:05:47;156465.38;;;4.84;89.81
7940;BME280;4015;48.888;9.226;2022-12-05T05:08:22;156450.13;;;4.78;89.51
7940;BME280;4015;48.888;9.226;2022-12-05T05:11:10;156457.72;;;4.81;89.97
7940;BME280;4015;48.888;9.226;2022-12-05T05:13:37;156481.94;;;4.91;89.84
7940;BME280;4015;48.888;9.226;2022-12-05T05:16:02;156492.06;;;4.95;88.91
7940;BME280;4015;48.888;9.226;2022-12-05T05:18:28;156484.47;;;4.92;89.28
7940;BME280;4015;48.888;9.226;2022-12-05T05:20:53;156470.47;;;4.86;89.49
7940;BME280;4015;48.888;9.226;2022-12-05T05:23:19;156460.25;;;4.82;89.01
7940;BME280;4015;48.888;9.226;2022-12-05T05:25:44;156469.19;;;4.85;89.43
7940;BME280;4015;48.888;9.226;2022-12-05T05:28:09;156484.47;;;4.92;88.83
7940;BME280;4015;48.888;9.226;2022-12-05T05:30:35;156469.19;;;4.85;89.14
7940;BME280;4015;48.888;9.226;2022-12-05T05:33:00;156479.34;;;4.90;89.82
7940;BME280;4015;48.888;9.226;2022-12-05T05:35:26;156485.72;;;4.92;90.17
7940;BME280;4015;48.888;9.226;2022-12-05T05:37:51;156489.53;;;4.94;90.24
7940;BME280;4015;48.888;9.226;2022-12-05T05:40:17;156471.72;;;4.86;90.64
7940;BME280;4015;48.888;9.226;2022-12-05T05:42:47;156425.91;;;4.68;91.07
7940;BME280;4015;48.888;9.226;2022-12-05T05:45:14;156392.84;;;4.55;92.11
7940;BME280;4015;48.888;9.226;2022-12-05T05:47:40;156410.66;;;4.62;92.62
7940;BME280;4015;48.888;9.226;2022-12-05T05:50:06;156410.66;;;4.62;92.11
7940;BME280;4015;48.888;9.226;2022-12-05T05:52:33;156415.72;;;4.64;92.54
7940;BME280;4015;48.888;9.226;2022-12-05T05:54:59;156446.25;;;4.76;92.71
7940;BME280;4015;48.888;9.226;2022-12-05T05:57:24;156501.00;;;4.98;91.48
7940;BME280;4015;48.888;9.226;2022-12-05T05:59:50;156523.91;;;5.07;90.64
7940;BME280;4015;48.888;9.226;2022-12-05T06:02:15;156548.09;;;5.17;90.04
7940;BME280;4015;48.888;9.226;2022-12-05T06:04:40;156544.28;;;5.16;89.49
7940;BME280;4015;48.888;9.226;2022-12-05T06:07:06;156508.63;;;5.01;89.91
7940;BME280;4015;48.888;9.226;2022-12-05T06:09:31;156487.00;;;4.93;90.12
7940;BME280;4015;48.888;9.226;2022-12-05T06:11:56;156469.19;;;4.85;90.00
7940;BME280;4015;48.888;9.226;2022-12-05T06:14:22;156485.72;;;4.92;90.52
7940;BME280;4015;48.888;9.226;2022-12-05T06:16:47;156465.38;;;4.84;90.64
7940;BME280;4015;48.888;9.226;2022-12-05T06:19:12;156506.09;;;5.00;90.24
7940;BME280;4015;48.888;9.226;2022-12-05T06:21:38;156511.16;;;5.02;89.86
7940;BME280;4015;48.888;9.226;2022-12-05T06:24:03;156488.28;;;4.93;90.02
7940;BME280;4015;48.888;9.226;2022-12-05T06:26:29;156511.16;;;5.02;90.05
7940;BME280;4015;48.888;9.226;2022-12-05T06:28:54;156504.81;;;5.00;89.58
7940;BME280;4015;48.888;9.226;2022-12-05T06:31:22;156484.47;;;4.92;89.93
7940;BME280;4015;48.888;9.226;2022-12-05T06:33:47;156511.16;;;5.02;89.76
7940;BME280;4015;48.888;9.226;2022-12-05T06:36:15;156493.34;;;4.95;89.43
7940;BME280;4015;48.888;9.226;2022-12-05T06:38:41;156504.81;;;5.00;89.27
7940;BME280;4015;48.888;9.226;2022-12-05T06:41:08;156542.97;;;5.15;89.18
7940;BME280;4015;48.888;9.226;2022-12-05T06:43:34;156554.44;;;5.20;88.22
7940;BME280;4015;48.888;9.226;2022-12-05T06:46:04;156549.38;;;5.18;88.98
7940;BME280;4015;48.888;9.226;2022-12-05T06:48:29;156517.56;;;5.05;90.05
7940;BME280;4015;48.888;9.226;2022-12-05T06:50:54;156446.25;;;4.76;91.04
7940;BME280;4015;48.888;9.226;2022-12-05T06:53:20;156453.91;;;4.79;91.14
7940;BME280;4015;48.888;9.226;2022-12-05T06:55:56;156464.06;;;4.83;91.61
7940;BME280;4015;48.888;9.226;2022-12-05T06:58:21;156462.81;;;4.83;92.18
7940;BME280;4015;48.888;9.226;2022-12-05T07:00:47;156445.00;;;4.76;92.09
7940;BME280;4015;48.888;9.226;2022-12-05T07:03:30;156476.81;;;4.88;91.70
7940;BME280;4015;48.888;9.226;2022-12-05T07:05:59;156452.66;;;4.79;91.92
7940;BME280;4015;48.888;9.226;2022-12-05T07:08:25;156433.53;;;4.71;92.14
7940;BME280;4015;48.888;9.226;2022-12-05T07:10:51;156434.84;;;4.72;91.78
7940;BME280;4015;48.888;9.226;2022-12-05T07:13:17;156409.38;;;4.62;92.52
7940;BME280;4015;48.888;9.226;2022-12-05T07:15:45;156419.59;;;4.66;92.16
7940;BME280;4015;48.888;9.226;2022-12-05T07:18:10;156427.19;;;4.69;92.54
7940;BME280;4015;48.888;9.226;2022-12-05T07:20:36;156431.00;;;4.70;91.71
7940;BME280;4015;48.888;9.226;2022-12-05T07:23:01;156478.06;;;4.89;91.18
7940;BME280;4015;48.888;9.226;2022-12-05T07:25:26;156456.47;;;4.80;91.40
7940;BME280;4015;48.888;9.226;2022-12-05T07:27:52;156457.72;;;4.81;91.05
7940;BME280;4015;48.888;9.226;2022-12-05T07:30:17;156471.72;;;4.86;91.32
7940;BME280;4015;48.888;9.226;2022-12-05T07:32:43;156522.63;;;5.07;90.73
7940;BME280;4015;48.888;9.226;2022-12-05T07:35:08;156565.91;;;5.24;90.04
7940;BME280;4015;48.888;9.226;2022-12-05T07:37:33;156573.53;;;5.27;89.79
7940;BME280;4015;48.888;9.226;2022-12-05T07:39:59;156556.97;;;5.21;90.18
7940;BME280;4015;48.888;9.226;2022-12-05T07:42:24;156588.78;;;5.33;90.20
7940;BME280;4015;48.888;9.226;2022-12-05T07:44:49;156607.94;;;5.41;90.33
7940;BME280;4015;48.888;9.226;2022-12-05T07:47:15;156611.72;;;5.43;90.38
7940;BME280;4015;48.888;9.226;2022-12-05T07:49:40;156642.28;;;5.55;90.29
7940;BME280;4015;48.888;9.226;2022-12-05T07:52:05;156661.38;;;5.62;89.04
7940;BME280;4015;48.888;9.226;2022-12-05T07:54:32;156657.56;;;5.61;88.65
7940;BME280;4015;48.888;9.226;2022-12-05T07:56:57;156679.19;;;5.69;88.97
7940;BME280;4015;48.888;9.226;2022-12-05T07:59:22;156719.97;;;5.86;89.10
7940;BME280;4015;48.888;9.226;2022-12-05T08:01:48;156742.91;;;5.95;88.16
7940;BME280;4015;48.888;9.226;2022-12-05T08:04:13;156764.59;;;6.04;87.92
7940;BME280;4015;48.888;9.226;2022-12-05T08:06:38;156786.22;;;6.12;87.17
7940;BME280;4015;48.888;9.226;2022-12-05T08:09:04;156790.03;;;6.14;86.71
7940;BME280;4015;48.888;9.226;2022-12-05T08:11:31;156747.97;;;5.97;87.44
7940;BME280;4015;48.888;9.226;2022-12-05T08:14:00;156767.13;;;6.05;87.50
7940;BME280;4015;48.888;9.226;2022-12-05T08:16:28;156736.56;;;5.92;88.00
7940;BME280;4015;48.888;9.226;2022-12-05T08:19:02;156749.31;;;5.98;88.05
7940;BME280;4015;48.888;9.226;2022-12-05T08:21:29;156744.19;;;5.95;88.09
7940;BME280;4015;48.888;9.226;2022-12-05T08:23:54;156754.38;;;6.00;88.10
7940;BME280;4015;48.888;9.226;2022-12-05T08:26:30;156781.13;;;6.10;88.20
7940;BME280;4015;48.888;9.226;2022-12-05T08:29:06;156797.69;;;6.17;87.43
7940;BME280;4015;48.888;9.226;2022-12-05T08:31:34;156772.19;;;6.07;87.66
7940;BME280;4015;48.888;9.226;2022-12-05T08:34:00;156824.41;;;6.28;87.23
7940;BME280;4015;48.888;9.226;2022-12-05T08:36:29;156787.50;;;6.13;87.86
7940;BME280;4015;48.888;9.226;2022-12-05T08:39:00;156852.44;;;6.39;87.51
7940;BME280;4015;48.888;9.226;2022-12-05T08:41:26;156818.06;;;6.25;86.64
7940;BME280;4015;48.888;9.226;2022-12-05T08:43:55;156844.81;;;6.36;86.25
7940;BME280;4015;48.888;9.226;2022-12-05T08:46:21;156846.09;;;6.36;86.20
7940;BME280;4015;48.888;9.226;2022-12-05T08:48:46;156777.28;;;6.09;86.51
7940;BME280;4015;48.888;9.226;2022-12-05T08:51:12;156770.94;;;6.06;86.51
7940;BME280;4015;48.888;9.226;2022-12-05T08:53:39;156783.69;;;6.11;87.12
7940;BME280;4015;48.888;9.226;2022-12-05T08:56:06;156779.88;;;6.10;87.96
7940;BME280;4015;48.888;9.226;2022-12-05T08:58:32;156769.66;;;6.06;87.85
7940;BME280;4015;48.888;9.226;2022-12-05T09:03:33;156736.56;;;5.92;89.02
7940;BME280;4015;48.888;9.226;2022-12-05T09:06:08;156783.69;;;6.11;89.25
7940;BME280;4015;48.888;9.226;2022-12-05T09:08:35;156778.56;;;6.09;88.81
7940;BME280;4015;48.888;9.226;2022-12-05T09:11:07;156781.13;;;6.10;88.53
7940;BME280;4015;48.888;9.226;2022-12-05T09:13:34;156767.13;;;6.05;88.00
7940;BME280;4015;48.888;9.226;2022-12-05T09:16:20;156770.94;;;6.06;89.18
7940;BME280;4015;48.888;9.226;2022-12-05T09:18:47;156823.13;;;6.27;89.21
7940;BME280;4015;48.888;9.226;2022-12-05T09:21:18;156851.16;;;6.38;88.31
7940;BME280;4015;48.888;9.226;2022-12-05T09:23:44;156866.47;;;6.44;88.27
7940;BME280;4015;48.888;9.226;2022-12-05T09:26:12;156871.53;;;6.46;88.73
7940;BME280;4015;48.888;9.226;2022-12-05T09:28:38;156879.22;;;6.49;87.67
7940;BME280;4015;48.888;9.226;2022-12-05T09:31:06;156884.28;;;6.52;87.92
7940;BME280;4015;48.888;9.226;2022-12-05T09:33:34;156927.63;;;6.69;86.46
7940;BME280;4015;48.888;9.226;2022-12-05T09:36:12;156907.25;;;6.61;86.38
7940;BME280;4015;48.888;9.226;2022-12-05T09:38:38;156890.69;;;6.54;87.50
7940;BME280;4015;48.888;9.226;2022-12-05T09:41:17;156877.94;;;6.49;87.83
7940;BME280;4015;48.888;9.226;2022-12-05T09:46:56;156857.53;;;6.41;86.52
7940;BME280;4015;48.888;9.226;2022-12-05T09:49:25;156854.97;;;6.40;86.76
7940;BME280;4015;48.888;9.226;2022-12-05T09:51:53;156852.44;;;6.39;87.21
7940;BME280;4015;48.888;9.226;2022-12-05T09:54:20;156842.22;;;6.35;87.51
7940;BME280;4015;48.888;9.226;2022-12-05T09:56:50;156886.81;;;6.53;87.72
7940;BME280;4015;48.888;9.226;2022-12-05T09:59:18;156889.38;;;6.54;87.17
7940;BME280;4015;48.888;9.226;2022-12-05T10:09:53;156948.00;;;6.77;87.89
7940;BME280;4015;48.888;9.226;2022-12-05T10:15:10;156979.84;;;6.90;86.65
7940;BME280;4015;48.888;9.226;2022-12-05T10:17:40;157002.81;;;6.99;86.56
7940;BME280;4015;48.888;9.226;2022-12-05T10:20:15;156965.81;;;6.84;86.41
7940;BME280;4015;48.888;9.226;2022-12-05T10:22:58;157009.16;;;7.01;85.33
7940;BME280;4015;48.888;9.226;2022-12-05T10:25:26;157007.88;;;7.01;84.69
7940;BME280;4015;48.888;9.226;2022-12-05T10:27:55;156951.81;;;6.79;85.66
7940;BME280;4015;48.888;9.226;2022-12-05T10:30:33;156953.13;;;6.79;86.78
7940;BME280;4015;48.888;9.226;2022-12-05T10:33:13;156948.00;;;6.77;87.06
7940;BME280;4015;48.888;9.226;2022-12-05T10:35:40;156954.38;;;6.80;87.59
7940;BME280;4015;48.888;9.226;2022-12-05T10:38:11;156945.44;;;6.76;87.98
7940;BME280;4015;48.888;9.226;2022-12-05T10:40:40;156911.06;;;6.62;88.11
7940;BME280;4015;48.888;9.226;2022-12-05T10:43:08;156899.56;;;6.58;89.02
7940;BME280;4015;48.888;9.226;2022-12-05T10:45:52;156928.88;;;6.69;89.28
7940;BME280;4015;48.888;9.226;2022-12-05T10:48:19;156926.34;;;6.68;89.64
7940;BME280;4015;48.888;9.226;2022-12-05T10:50:47;156899.56;;;6.58;90.12
7940;BME280;4015;48.888;9.226;2022-12-05T10:53:25;156963.28;;;6.83;89.70
7940;BME280;4015;48.888;9.226;2022-12-05T10:55:52;157028.25;;;7.09;88.22
7940;BME280;4015;48.888;9.226;2022-12-05T10:58:25;156977.31;;;6.89;89.12
7940;BME280;4015;48.888;9.226;2022-12-05T11:00:53;156998.94;;;6.97;88.53
7940;BME280;4015;48.888;9.226;2022-12-05T11:03:32;157039.75;;;7.14;89.17
7940;BME280;4015;48.888;9.226;2022-12-05T11:06:02;157109.88;;;7.42;88.42
7940;BME280;4015;48.888;9.226;2022-12-05T11:08:38;157051.22;;;7.18;88.89
7940;BME280;4015;48.888;9.226;2022-12-05T11:13:31;157046.09;;;7.16;88.08
7940;BME280;4015;48.888;9.226;2022-12-05T11:15:57;157120.03;;;7.46;86.85
7940;BME280;4015;48.888;9.226;2022-12-05T11:18:31;157100.94;;;7.38;87.60
7940;BME280;4015;48.888;9.226;2022-12-05T11:21:15;157167.22;;;7.65;88.46
7940;BME280;4015;48.888;9.226;2022-12-05T11:23:43;157174.88;;;7.68;88.57
7940;BME280;4015;48.888;9.226;2022-12-05T11:28:52;157179.97;;;7.70;86.93
7940;BME280;4015;48.888;9.226;2022-12-05T11:31:21;157185.06;;;7.72;85.23
7940;BME280;4015;48.888;9.226;2022-12-05T11:36:57;157262.84;;;8.03;85.39
7940;BME280;4015;48.888;9.226;2022-12-05T11:39:25;157293.44;;;8.15;84.55
7940;BME280;4015;48.888;9.226;2022-12-05T11:42:17;157336.81;;;8.32;84.26
7940;BME280;4015;48.888;9.226;2022-12-05T11:45:11;157373.84;;;8.47;83.73
7940;BME280;4015;48.888;9.226;2022-12-05T11:47:48;157430.00;;;8.70;82.38
7940;BME280;4015;48.888;9.226;2022-12-05T11:50:36;157422.31;;;8.67;81.16
7940;BME280;4015;48.888;9.226;2022-12-05T11:55:50;157350.91;;;8.38;82.96
7940;BME280;4015;48.888;9.226;2022-12-05T11:58:38;157426.19;;;8.68;83.11
7940;BME280;4015;48.888;9.226;2022-12-05T12:06:21;157353.44;;;8.39;82.68
7940;BME280;4015;48.888;9.226;2022-12-05T12:11:31;157373.84;;;8.47;84.47
7940;BME280;4015;48.888;9.226;2022-12-05T12:19:31;157357.25;;;8.41;83.90
7940;BME280;4015;48.888;9.226;2022-12-05T12:25:28;157376.38;;;8.48;84.30
7940;BME280;4015;48.888;9.226;2022-12-05T12:33:53;157315.16;;;8.24;83.84
7940;BME280;4015;48.888;9.226;2022-12-05T12:36:41;157326.59;;;8.28;83.69
7940;BME280;4015;48.888;9.226;2022-12-05T12:41:47;157335.56;;;8.32;85.31
7940;BME280;4015;48.888;9.226;2022-12-05T12:46:56;157363.66;;;8.43;83.37
7940;BME280;4015;48.888;9.226;2022-12-05T12:52:13;157385.34;;;8.52;83.72
7940;BME280;4015;48.888;9.226;2022-12-05T13:00:10;157372.56;;;8.47;83.41
7940;BME280;4015;48.888;9.226;2022-12-05T13:02:44;157419.78;;;8.65;83.55
7940;BME280;4015;48.888;9.226;2022-12-05T13:05:22;157419.78;;;8.65;83.04
7940;BME280;4015;48.888;9.226;2022-12-05T13:08:11;157430.00;;;8.70;82.67
7940;BME280;4015;48.888;9.226;2022-12-05T13:10:44;157433.81;;;8.71;82.69
7940;BME280;4015;48.888;9.226;2022-12-05T13:13:18;157455.47;;;8.80;81.96
7940;BME280;4015;48.888;9.226;2022-12-05T13:15:49;157474.66;;;8.87;81.72
7940;BME280;4015;48.888;9.226;2022-12-05T13:18:18;157408.28;;;8.61;82.18
7940;BME280;4015;48.888;9.226;2022-12-05T13:20:46;157396.84;;;8.56;83.07
7940;BME280;4015;48.888;9.226;2022-12-05T13:23:17;157414.69;;;8.63;82.65
7940;BME280;4015;48.888;9.226;2022-12-05T13:25:44;157359.81;;;8.42;82.30
7940;BME280;4015;48.888;9.226;2022-12-05T13:28:35;157294.72;;;8.16;83.58
7940;BME280;4015;48.888;9.226;2022-12-05T13:31:07;157301.13;;;8.18;84.19
7940;BME280;4015;48.888;9.226;2022-12-05T13:33:43;157336.81;;;8.32;83.82
7940;BME280;4015;48.888;9.226;2022-12-05T13:36:18;157320.25;;;8.26;84.45
7940;BME280;4015;48.888;9.226;2022-12-05T13:39:05;157315.16;;;8.24;84.43
7940;BME280;4015;48.888;9.226;2022-12-05T13:41:53;157325.34;;;8.28;84.58
7940;BME280;4015;48.888;9.226;2022-12-05T13:44:56;157341.91;;;8.34;83.58
7940;BME280;4015;48.888;9.226;2022-12-05T13:50:22;157345.81;;;8.36;83.03
7940;BME280;4015;48.888;9.226;2022-12-05T13:52:59;157321.50;;;8.26;82.11
7940;BME280;4015;48.888;9.226;2022-12-05T13:55:32;157265.38;;;8.04;83.11
7940;BME280;4015;48.888;9.226;2022-12-05T13:58:00;157160.84;;;7.62;84.93
7940;BME280;4015;48.888;9.226;2022-12-05T14:00:27;157154.44;;;7.60;84.48
7940;BME280;4015;48.888;9.226;2022-12-05T14:02:58;157100.94;;;7.38;85.59
7940;BME280;4015;48.888;9.226;2022-12-05T14:05:35;157015.56;;;7.04;86.16
7940;BME280;4015;48.888;9.226;2022-12-05T14:15:48;157046.09;;;7.16;86.72
7940;BME280;4015;48.888;9.226;2022-12-05T14:18:14;157006.63;;;7.00;86.77
7940;BME280;4015;48.888;9.226;2022-12-05T14:29:29;157047.41;;;7.17;85.73
7940;BME280;4015;48.888;9.226;2022-12-05T14:34:53;157016.81;;;7.05;87.15
7940;BME280;4015;48.888;9.226;2022-12-05T14:37:26;157056.31;;;7.20;87.29
7940;BME280;4015;48.888;9.226;2022-12-05T14:39:55;157065.25;;;7.24;87.28
7940;BME280;4015;48.888;9.226;2022-12-05T14:42:35;157039.75;;;7.14;87.16
7940;BME280;4015;48.888;9.226;2022-12-05T14:45:27;156973.50;;;6.87;88.35
7940;BME280;4015;48.888;9.226;2022-12-05T14:50:47;156974.75;;;6.88;88.65
7940;BME280;4015;48.888;9.226;2022-12-05T14:56:04;156982.38;;;6.91;88.23
7940;BME280;4015;48.888;9.226;2022-12-05T15:06:56;156969.69;;;6.86;88.68
7940;BME280;4015;48.888;9.226;2022-12-05T15:09:54;157011.69;;;7.02;87.54
7940;BME280;4015;48.888;9.226;2022-12-05T15:12:25;156996.41;;;6.96;87.41
7940;BME280;4015;48.888;9.226;2022-12-05T15:14:58;156974.75;;;6.88;88.42
7940;BME280;4015;48.888;9.226;2022-12-05T15:17:33;156974.75;;;6.88;88.24
7940;BME280;4015;48.888;9.226;2022-12-05T15:26:02;156945.44;;;6.76;89.05
7940;BME280;4015;48.888;9.226;2022-12-05T15:28:29;156935.25;;;6.72;89.44
7940;BME280;4015;48.888;9.226;2022-12-05T15:30:55;156956.94;;;6.81;89.55
7940;BME280;4015;48.888;9.226;2022-12-05T15:33:22;156960.75;;;6.82;89.11
7940;BME280;4015;48.888;9.226;2022-12-05T15:35:51;156930.16;;;6.70;89.95
7940;BME280;4015;48.888;9.226;2022-12-05T15:38:29;156889.38;;;6.54;89.69
7940;BME280;4015;48.888;9.226;2022-12-05T15:40:56;156849.91;;;6.38;90.56
7940;BME280;4015;48.888;9.226;2022-12-05T15:43:27;156832.06;;;6.31;91.22
7940;BME280;4015;48.888;9.226;2022-12-05T15:46:18;156807.84;;;6.21;91.87
7940;BME280;4015;48.888;9.226;2022-12-05T15:48:54;156818.06;;;6.25;91.73
7940;BME280;4015;48.888;9.226;2022-12-05T15:51:24;156861.38;;;6.42;91.27
7940;BME280;4015;48.888;9.226;2022-12-05T15:53:58;156821.88;;;6.27;91.23
7940;BME280;4015;48.888;9.226;2022-12-05T15:59:11;156872.81;;;6.47;90.99
7940;BME280;4015;48.888;9.226;2022-12-05T16:02:00;156881.75;;;6.51;90.58
7940;BME280;4015;48.888;9.226;2022-12-05T16:04:43;156860.09;;;6.42;90.62